Current | Forecast
Updated: 6:00 PM JST on April 26, 2018
Observed at Hakodate Airport, Japan
Temperature 50°F
Humidity 71%
Dew Point 41°F
Wind WNW at 16 mph
Pressure 29.71 in (Steady)
Conditions Partly Cloudy
Visibility 6.2 miles
UV 0 out of 16
Clouds (FEW) : 3500 ft
Yesterday's Maximum 46°F
Yesterday's Minimum 45°F approx.
Yesterday's Heating Degree Days 20 approx.
Sunrise4:41 AM JST
Sunset6:28 PM JST
Moon Rise2:17 PM JST
Moon Set2:52 AM JST
Moon PhaseMoon Phase
Waxing Gibbous
Raw METARMETAR RJCH 260900Z 29014KT 9999 FEW035 10/05 Q1006


Monday
. High: 60° F.
Tuesday
. High: 62° F.
Wednesday
. High: 59° F.
Thursday
. High: 62° F.
Friday
. High: 60° F.
Saturday
. High: 55° F.
Sunday
. High: 62° F.
Monday
. High: 57° F.

Units: English | Metric

Find the Weather for any City, State or Zipcode, or Country:

U.S. State List | Severe Weather | Tropical Storms | Ski Conditions
United States | Canada | Central America | South America | Asia | Europe | Australia | Africa | Islands

Weather Underground

© Copyright 2018
The Weather Company, LLC